Time;durP1;ratioP1;P1;durP2;ratioP2;P2;SDS_P1;SDS_P2;PMS_P1;PMS_P2;Temp;Humidity;BMP_temperature;BMP_pressure;BME280_temperature;BME280_humidity;BME280_pressure;Samples;Min_cycle;Max_cycle;Signal;HPM_P1;HPM_P2
2020/09/15 00:00:02;;;;;;;4.4;2.2;;;;;;;;;;;;;
2020/09/15 00:02:28;;;;;;;3.6;2.3;;;;;;;;;;;;;
2020/09/15 00:04:53;;;;;;;3.5;2.3;;;;;;;;;;;;;
2020/09/15 00:07:18;;;;;;;3.1;1.8;;;;;;;;;;;;;
2020/09/15 00:09:43;;;;;;;4;1.9;;;;;;;;;;;;;
2020/09/15 00:12:08;;;;;;;4.2;2.3;;;;;;;;;;;;;
2020/09/15 00:14:34;;;;;;;3;2.2;;;;;;;;;;;;;
2020/09/15 00:16:59;;;;;;;6.7;2.1;;;;;;;;;;;;;
2020/09/15 00:19:24;;;;;;;10.5;2.5;;;;;;;;;;;;;
2020/09/15 00:21:49;;;;;;;5;2.4;;;;;;;;;;;;;
2020/09/15 00:24:14;;;;;;;5.5;2.1;;;;;;;;;;;;;
2020/09/15 00:26:39;;;;;;;3.6;2.2;;;;;;;;;;;;;
2020/09/15 00:29:04;;;;;;;4.3;2.4;;;;;;;;;;;;;
2020/09/15 00:31:29;;;;;;;2.9;2;;;;;;;;;;;;;
2020/09/15 00:33:56;;;;;;;7.4;2.4;;;;;;;;;;;;;
2020/09/15 00:36:21;;;;;;;2.8;1.9;;;;;;;;;;;;;
2020/09/15 00:38:46;;;;;;;5.6;2.7;;;;;;;;;;;;;
2020/09/15 00:41:11;;;;;;;4.8;2.6;;;;;;;;;;;;;
2020/09/15 00:43:36;;;;;;;2.8;2.2;;;;;;;;;;;;;
2020/09/15 00:46:01;;;;;;;4.6;2.6;;;;;;;;;;;;;
2020/09/15 00:48:27;;;;;;;4.8;2.2;;;;;;;;;;;;;
2020/09/15 00:50:52;;;;;;;4.2;2.5;;;;;;;;;;;;;
2020/09/15 00:53:17;;;;;;;4.6;2.6;;;;;;;;;;;;;
2020/09/15 00:55:42;;;;;;;4.8;2.1;;;;;;;;;;;;;
2020/09/15 00:58:07;;;;;;;8.6;2.5;;;;;;;;;;;;;
2020/09/15 01:00:32;;;;;;;5;2.3;;;;;;;;;;;;;
2020/09/15 01:02:58;;;;;;;2.7;2;;;;;;;;;;;;;
2020/09/15 01:05:23;;;;;;;2.9;2.1;;;;;;;;;;;;;
2020/09/15 01:07:48;;;;;;;4.6;2.4;;;;;;;;;;;;;
2020/09/15 01:10:13;;;;;;;4.1;2.2;;;;;;;;;;;;;
2020/09/15 01:12:39;;;;;;;4.3;1.9;;;;;;;;;;;;;
2020/09/15 01:15:04;;;;;;;2.6;1.8;;;;;;;;;;;;;
2020/09/15 01:17:29;;;;;;;2.9;1.8;;;;;;;;;;;;;
2020/09/15 01:19:55;;;;;;;5.1;2.4;;;;;;;;;;;;;
2020/09/15 01:22:19;;;;;;;4.9;2.2;;;;;;;;;;;;;
2020/09/15 01:24:44;;;;;;;12.6;2.3;;;;;;;;;;;;;
2020/09/15 01:27:09;;;;;;;4.3;2.5;;;;;;;;;;;;;
2020/09/15 01:29:34;;;;;;;3.7;1.7;;;;;;;;;;;;;
2020/09/15 01:32:00;;;;;;;3;1.8;;;;;;;;;;;;;
2020/09/15 01:34:26;;;;;;;3.8;2.3;;;;;;;;;;;;;
2020/09/15 01:36:51;;;;;;;4.7;2.2;;;;;;;;;;;;;
2020/09/15 01:39:17;;;;;;;3.3;2.3;;;;;;;;;;;;;
2020/09/15 01:41:42;;;;;;;1.9;1.6;;;;;;;;;;;;;
2020/09/15 01:44:08;;;;;;;3.4;2.4;;;;;;;;;;;;;
2020/09/15 01:46:33;;;;;;;4.8;2.2;;;;;;;;;;;;;
2020/09/15 01:49:00;;;;;;;2.6;1.8;;;;;;;;;;;;;
2020/09/15 01:51:25;;;;;;;3.4;1.8;;;;;;;;;;;;;
2020/09/15 01:53:51;;;;;;;3.6;1.8;;;;;;;;;;;;;
2020/09/15 01:56:16;;;;;;;2.7;1.8;;;;;;;;;;;;;
2020/09/15 01:58:42;;;;;;;4;2;;;;;;;;;;;;;
2020/09/15 02:01:07;;;;;;;4.2;2;;;;;;;;;;;;;
2020/09/15 02:03:32;;;;;;;4.1;2;;;;;;;;;;;;;
2020/09/15 02:05:57;;;;;;;4.3;2.1;;;;;;;;;;;;;
2020/09/15 02:08:22;;;;;;;2.3;1.8;;;;;;;;;;;;;
2020/09/15 02:10:47;;;;;;;4.5;2.4;;;;;;;;;;;;;
2020/09/15 02:13:12;;;;;;;4.6;2.2;;;;;;;;;;;;;
2020/09/15 02:15:41;;;;;;;3.7;2.1;;;;;;;;;;;;;
2020/09/15 02:18:06;;;;;;;4.6;2.3;;;;;;;;;;;;;
2020/09/15 02:20:32;;;;;;;7.1;1.9;;;;;;;;;;;;;
2020/09/15 02:22:57;;;;;;;2.5;1.9;;;;;;;;;;;;;
2020/09/15 02:25:22;;;;;;;3.6;2.1;;;;;;;;;;;;;
2020/09/15 02:27:47;;;;;;;2.1;1.6;;;;;;;;;;;;;
2020/09/15 02:30:13;;;;;;;3.5;2;;;;;;;;;;;;;
2020/09/15 02:32:38;;;;;;;2.6;1.8;;;;;;;;;;;;;
2020/09/15 02:35:04;;;;;;;3.4;2.2;;;;;;;;;;;;;
2020/09/15 02:37:29;;;;;;;2.5;1.4;;;;;;;;;;;;;
2020/09/15 02:39:55;;;;;;;2.5;1.8;;;;;;;;;;;;;
2020/09/15 02:42:20;;;;;;;3.6;2;;;;;;;;;;;;;
2020/09/15 02:44:46;;;;;;;6.1;2.1;;;;;;;;;;;;;
2020/09/15 02:47:11;;;;;;;7.3;2.3;;;;;;;;;;;;;
2020/09/15 02:49:38;;;;;;;3.8;2.3;;;;;;;;;;;;;
2020/09/15 02:52:03;;;;;;;2.4;1.6;;;;;;;;;;;;;
2020/09/15 02:54:29;;;;;;;2.4;1.8;;;;;;;;;;;;;
2020/09/15 02:56:54;;;;;;;3.7;2.1;;;;;;;;;;;;;
2020/09/15 02:59:20;;;;;;;2.5;1.9;;;;;;;;;;;;;
2020/09/15 03:01:45;;;;;;;2.7;1.8;;;;;;;;;;;;;
2020/09/15 03:04:12;;;;;;;3;2.1;;;;;;;;;;;;;
2020/09/15 03:06:36;;;;;;;3.3;1.6;;;;;;;;;;;;;
2020/09/15 03:09:03;;;;;;;4.2;2.2;;;;;;;;;;;;;
2020/09/15 03:11:28;;;;;;;3.7;2;;;;;;;;;;;;;
2020/09/15 03:13:53;;;;;;;2;1.5;;;;;;;;;;;;;
2020/09/15 03:16:18;;;;;;;2.5;1.9;;;;;;;;;;;;;
2020/09/15 03:18:45;;;;;;;2.9;1.7;;;;;;;;;;;;;
2020/09/15 03:21:10;;;;;;;4.8;1.9;;;;;;;;;;;;;
2020/09/15 03:23:37;;;;;;;3.6;1.3;;;;;;;;;;;;;
2020/09/15 03:26:01;;;;;;;3.5;1.8;;;;;;;;;;;;;
2020/09/15 03:28:27;;;;;;;3.3;1.3;;;;;;;;;;;;;
2020/09/15 03:30:52;;;;;;;11.5;2.1;;;;;;;;;;;;;
2020/09/15 03:33:18;;;;;;;3.7;1.9;;;;;;;;;;;;;
2020/09/15 03:35:43;;;;;;;2.9;1.8;;;;;;;;;;;;;
2020/09/15 03:38:08;;;;;;;2.8;1.8;;;;;;;;;;;;;
2020/09/15 03:40:35;;;;;;;2.5;1.6;;;;;;;;;;;;;
2020/09/15 03:43:00;;;;;;;2.6;1.6;;;;;;;;;;;;;
2020/09/15 03:45:27;;;;;;;3.8;2.2;;;;;;;;;;;;;
2020/09/15 03:47:55;;;;;;;3.1;2;;;;;;;;;;;;;
2020/09/15 03:50:20;;;;;;;2.1;1.6;;;;;;;;;;;;;
2020/09/15 03:52:45;;;;;;;3.5;1.6;;;;;;;;;;;;;
2020/09/15 03:55:10;;;;;;;2.3;1.7;;;;;;;;;;;;;
2020/09/15 03:57:35;;;;;;;3.9;1.8;;;;;;;;;;;;;
2020/09/15 04:00:01;;;;;;;5.2;2.3;;;;;;;;;;;;;
2020/09/15 04:02:30;;;;;;;2.6;1.9;;;;;;;15.41;83.12207;944.6108;;;;
2020/09/15 04:04:56;;;;;;;3.9;2.4;;;;;;;15.54;82.30469;944.5278;;;;
2020/09/15 04:07:21;;;;;;;3.6;2.1;;;;;;;15.61;82.21191;944.4631;;;;
2020/09/15 04:09:46;;;;;;;5.1;2;;;;;;;15.71;81.56055;944.4931;;;;
2020/09/15 04:12:13;;;;;;;3.9;2;;;;;;;15.8;81.3584;944.5356;;;;
2020/09/15 04:14:38;;;;;;;4.2;2.1;;;;;;;15.75;81.37305;944.4938;;;;
2020/09/15 04:17:03;;;;;;;3.9;1.9;;;;;;;15.8;80.86328;944.5203;;;;
2020/09/15 04:19:28;;;;;;;4.2;2.3;;;;;;;15.52;81.67773;944.543;;;;
2020/09/15 04:21:53;;;;;;;6;2.2;;;;;;;15.55;82.17871;944.49;;;;
2020/09/15 04:24:19;;;;;;;2;1.6;;;;;;;15.52;82.31055;944.5567;;;;
2020/09/15 04:26:44;;;;;;;3;1.3;;;;;;;15.58;82.20605;944.5327;;;;
2020/09/15 04:29:09;;;;;;;4.2;2.1;;;;;;;15.71;81.30664;944.4328;;;;
2020/09/15 04:31:38;;;;;;;2.8;1.7;;;;;;;15.77;81.0293;944.4625;;;;
2020/09/15 04:34:03;;;;;;;5.1;2.4;;;;;;;15.69;81.34961;944.5461;;;;
2020/09/15 04:36:31;;;;;;;4.3;1.7;;;;;;;15.38;82.36426;944.5522;;;;
2020/09/15 04:38:55;;;;;;;6.4;1.9;;;;;;;15.34;82.64648;944.5161;;;;
2020/09/15 04:41:21;;;;;;;3.6;2;;;;;;;15.42;82.27051;944.5285;;;;
2020/09/15 04:43:48;;;;;;;3.5;1.8;;;;;;;15.48;81.81934;944.5109;;;;
2020/09/15 04:46:18;;;;;;;2.9;2;;;;;;;15.38;81.9502;944.5097;;;;
2020/09/15 04:48:48;;;;;;;6.2;2.2;;;;;;;15.43;82.05176;944.5775;;;;
2020/09/15 04:51:16;;;;;;;3.6;2.2;;;;;;;15.35;82.45215;944.5362;;;;
2020/09/15 04:53:41;;;;;;;3.9;1.9;;;;;;;15.43;82.7207;944.514;;;;
2020/09/15 04:56:07;;;;;;;2.9;1.7;;;;;;;15.55;81.83105;944.5037;;;;
2020/09/15 04:58:32;;;;;;;2.5;1.7;;;;;;;15.65;81.42383;944.5597;;;;
2020/09/15 05:00:57;;;;;;;3;2.1;;;;;;;15.78;80.53418;944.4922;;;;
2020/09/15 05:03:22;;;;;;;3.4;1.6;;;;;;;15.84;80.51172;944.4828;;;;
2020/09/15 05:05:48;;;;;;;3.4;2.3;;;;;;;15.93;80.1582;944.4908;;;;
2020/09/15 05:08:13;;;;;;;4.6;2.1;;;;;;;15.96;80.30176;944.5831;;;;
2020/09/15 05:10:45;;;;;;;1.9;1.7;;;;;;;15.93;80.18066;944.5912;;;;
2020/09/15 05:13:10;;;;;;;4.6;2;;;;;;;15.89;80.20703;944.5937;;;;
2020/09/15 05:15:40;;;;;;;2.4;1.7;;;;;;;15.89;80.35938;944.5455;;;;
2020/09/15 05:18:07;;;;;;;2.9;1.9;;;;;;;15.93;80.55078;944.5679;;;;
2020/09/15 05:20:32;;;;;;;2.3;1.8;;;;;;;15.96;80.42871;944.5662;;;;
2020/09/15 05:22:58;;;;;;;4.2;1.5;;;;;;;16.02;80.19727;944.5817;;;;
2020/09/15 05:25:23;;;;;;;3.3;1.9;;;;;;;16.07;79.95117;944.6885;;;;
2020/09/15 05:28:01;;;;;;;2.8;1.9;;;;;;;16.08;79.79297;944.6266;;;;
2020/09/15 05:30:27;;;;;;;5.2;3.5;;;;;;;16.11;80.09863;944.6692;;;;
2020/09/15 05:33:36;;;;;;;5.9;3.1;;;;;;;16.21;79.68848;944.7317;;;;
2020/09/15 05:36:01;;;;;;;4.5;2.6;;;;;;;16.31;79.05762;944.6578;;;;
2020/09/15 05:38:29;;;;;;;3.3;2.3;;;;;;;16.34;79.0752;944.7197;;;;
2020/09/15 05:41:00;;;;;;;4.2;2.2;;;;;;;16.34;79.20215;944.6578;;;;
2020/09/15 05:43:25;;;;;;;4.8;2.4;;;;;;;16.41;78.96094;944.7122;;;;
2020/09/15 05:45:52;;;;;;;2.1;1.7;;;;;;;16.52;78.08887;944.7001;;;;
2020/09/15 05:48:17;;;;;;;4.9;2.4;;;;;;;16.59;78.24121;944.6926;;;;
2020/09/15 05:50:45;;;;;;;4.7;2.5;;;;;;;16.65;77.92676;944.7056;;;;
2020/09/15 05:53:10;;;;;;;8.5;2.4;;;;;;;16.64;77.8916;944.7017;;;;
2020/09/15 05:55:35;;;;;;;5.2;2.2;;;;;;;16.64;78.08691;944.6639;;;;
2020/09/15 05:58:00;;;;;;;9;2.3;;;;;;;16.84;77.33496;944.7344;;;;
2020/09/15 06:00:31;;;;;;;5.3;1.9;;;;;;;17;76.64453;944.6975;;;;
2020/09/15 06:02:56;;;;;;;2.8;1.8;;;;;;;17.27;75.76465;944.7481;;;;
2020/09/15 06:05:28;;;;;;;4.4;2.1;;;;;;;17.37;75.19043;944.7757;;;;
2020/09/15 06:07:57;;;;;;;8.7;2.1;;;;;;;18.21;72.59277;944.8212;;;;
2020/09/15 06:10:24;;;;;;;3.1;1.8;;;;;;;19.15;68.6709;944.7439;;;;
2020/09/15 06:12:49;;;;;;;6.5;2.1;;;;;;;19.38;67.66895;944.7419;;;;
2020/09/15 06:15:14;;;;;;;2.5;1.4;;;;;;;19.62;67.03027;944.7431;;;;
2020/09/15 06:17:39;;;;;;;3;1.6;;;;;;;20.36;65.14746;944.7601;;;;
2020/09/15 06:20:08;;;;;;;4.6;2;;;;;;;21.2;61.37305;944.7122;;;;
2020/09/15 06:22:33;;;;;;;4.2;2;;;;;;;21.2;60.70801;944.777;;;;
2020/09/15 06:24:59;;;;;;;6.4;1.9;;;;;;;20.11;62.78711;944.7037;;;;
2020/09/15 06:27:24;;;;;;;5.3;1.9;;;;;;;19.78;65.3291;944.7723;;;;
2020/09/15 06:29:49;;;;;;;3;1.9;;;;;;;19.7;65.65527;944.7639;;;;
2020/09/15 06:32:15;;;;;;;3.7;1.8;;;;;;;19.57;66.19531;944.7583;;;;
2020/09/15 06:34:41;;;;;;;2.3;1.6;;;;;;;19.61;66.8418;944.7852;;;;
2020/09/15 06:37:06;;;;;;;1.7;1.4;;;;;;;19.77;66.48145;944.8137;;;;
2020/09/15 06:39:32;;;;;;;10.9;2.2;;;;;;;19.55;65.59863;944.7861;;;;
2020/09/15 06:42:01;;;;;;;7.4;2.3;;;;;;;19.54;66.65723;944.7538;;;;
2020/09/15 06:44:26;;;;;;;3.9;1.7;;;;;;;19.83;66.11719;944.7994;;;;
2020/09/15 06:46:51;;;;;;;3.8;2.1;;;;;;;20.08;65.83984;944.7924;;;;
2020/09/15 06:49:20;;;;;;;4.9;1.9;;;;;;;20.13;66.0459;944.8077;;;;
2020/09/15 06:51:45;;;;;;;3.2;1.8;;;;;;;20.22;64.98535;944.7805;;;;
2020/09/15 06:54:14;;;;;;;4.1;1.9;;;;;;;20.33;65.29297;944.7689;;;;
2020/09/15 06:56:39;;;;;;;1.9;1.4;;;;;;;20.4;64.55664;944.7765;;;;
2020/09/15 06:59:04;;;;;;;5.7;1.8;;;;;;;20.48;64.5791;944.766;;;;
2020/09/15 07:01:29;;;;;;;2.3;1.6;;;;;;;20.53;64.98438;944.7983;;;;
2020/09/15 07:03:56;;;;;;;3.9;2.1;;;;;;;20.62;65.19629;944.816;;;;
2020/09/15 07:06:23;;;;;;;4.5;2.2;;;;;;;20.74;65.00391;944.8212;;;;
2020/09/15 07:08:48;;;;;;;4.7;2.2;;;;;;;21.07;64.54883;944.7935;;;;
2020/09/15 07:11:19;;;;;;;5;2.1;;;;;;;21.47;62.99121;944.7194;;;;
2020/09/15 07:13:44;;;;;;;3.5;1.7;;;;;;;21.33;62.28027;944.7595;;;;
2020/09/15 07:16:10;;;;;;;3.9;1.7;;;;;;;21.27;62.12109;944.7324;;;;
2020/09/15 07:18:39;;;;;;;2.7;1.7;;;;;;;21.37;60.78906;944.7083;;;;
2020/09/15 07:21:04;;;;;;;5.1;1.9;;;;;;;21.69;62.0498;944.7292;;;;
2020/09/15 07:23:32;;;;;;;3.3;1.7;;;;;;;22.46;57.58203;944.7653;;;;
2020/09/15 08:09:54;;;;;;;1.1;0.6;;;;;;;38.26;24.8457;944.5354;;;;
2020/09/15 08:12:19;;;;;;;2.2;0.9;;;;;;;38.76;24.27637;944.5515;;;;
2020/09/15 08:14:45;;;;;;;1.6;1.2;;;;;;;39.68;23.16699;944.5694;;;;
2020/09/15 08:17:10;;;;;;;1.1;0.7;;;;;;;39.61;22.00586;944.5063;;;;
2020/09/15 08:19:35;;;;;;;1.1;0.9;;;;;;;39.81;21.44336;944.4698;;;;
2020/09/15 08:22:08;;;;;;;2.2;1.1;;;;;;;39.86;22.18945;944.4791;;;;
2020/09/15 08:24:37;;;;;;;1.4;0.8;;;;;;;39.89;23.05566;944.4339;;;;
2020/09/15 08:27:05;;;;;;;2.4;0.8;;;;;;;39.98;21.04785;944.4169;;;;
2020/09/15 08:29:31;;;;;;;1.8;1.2;;;;;;;39.71;21.16992;944.4341;;;;
2020/09/15 08:31:57;;;;;;;1.3;0.9;;;;;;;40.01;21.42773;944.3967;;;;
2020/09/15 08:34:22;;;;;;;1.3;0.9;;;;;;;39.44;21.53516;944.3215;;;;
2020/09/15 08:36:47;;;;;;;1.6;0.8;;;;;;;38.31;23.24414;944.3094;;;;
2020/09/15 08:39:15;;;;;;;0.9;0.7;;;;;;;37.55;23.95801;944.3356;;;;
2020/09/15 08:41:40;;;;;;;1.4;1;;;;;;;37.87;23.93848;944.3301;;;;
2020/09/15 08:44:06;;;;;;;1.7;1.1;;;;;;;35.11;26.53418;944.3547;;;;
2020/09/15 08:46:31;;;;;;;1.1;0.9;;;;;;;33.97;28.14063;944.31;;;;
2020/09/15 08:49:00;;;;;;;1.2;1;;;;;;;32.49;28.15723;944.3348;;;;
2020/09/15 08:51:25;;;;;;;1.5;0.9;;;;;;;32.51;28.87891;944.2949;;;;
2020/09/15 08:53:50;;;;;;;1.6;1.1;;;;;;;33.36;30.92773;944.2505;;;;
2020/09/15 08:56:15;;;;;;;2;1;;;;;;;32.79;29.26855;944.2587;;;;
2020/09/15 08:58:42;;;;;;;1.4;1;;;;;;;31.78;31.03613;944.215;;;;
2020/09/15 09:01:07;;;;;;;2.7;1.4;;;;;;;32.91;30.8252;944.2527;;;;
2020/09/15 09:03:34;;;;;;;2.6;1.1;;;;;;;33.82;28.64844;944.2554;;;;
2020/09/15 09:05:59;;;;;;;1.2;0.7;;;;;;;34.11;29.01563;944.2395;;;;
2020/09/15 09:08:30;;;;;;;2.1;0.7;;;;;;;33.65;30.63477;944.2222;;;;
2020/09/15 09:10:55;;;;;;;1.4;0.8;;;;;;;33.73;27.68066;944.1859;;;;
2020/09/15 09:13:23;;;;;;;1.7;1;;;;;;;34;27.80566;944.1194;;;;
2020/09/15 09:15:51;;;;;;;2.3;1;;;;;;;34.46;29.42383;944.2144;;;;
2020/09/15 09:18:16;;;;;;;1.8;0.9;;;;;;;34.9;29.74219;944.2238;;;;
2020/09/15 09:20:45;;;;;;;1.3;1.1;;;;;;;34.82;28.26563;944.2217;;;;
2020/09/15 09:23:10;;;;;;;1.7;0.9;;;;;;;34.8;29.08496;944.2316;;;;
2020/09/15 09:25:51;;;;;;;2.6;0.9;;;;;;;35.39;28.58984;944.2151;;;;
2020/09/15 09:28:15;;;;;;;2.6;1.4;;;;;;;35.42;27.24023;944.2372;;;;
2020/09/15 09:30:40;;;;;;;1.9;1.2;;;;;;;35.57;26.23438;944.1442;;;;
2020/09/15 09:33:06;;;;;;;2.3;1.2;;;;;;;34.76;27.90039;944.079;;;;
2020/09/15 09:35:33;;;;;;;2.1;0.9;;;;;;;34.34;27.06738;944.0478;;;;
2020/09/15 09:37:59;;;;;;;1.3;0.8;;;;;;;34.58;25.70801;944.0903;;;;
2020/09/15 09:40:27;;;;;;;0.6;0.6;;;;;;;33.88;29.65137;944.0681;;;;
2020/09/15 09:42:52;;;;;;;0.8;0.7;;;;;;;33.41;29.10352;944.0245;;;;
2020/09/15 09:45:32;;;;;;;1.8;0.9;;;;;;;33;30.42285;944.0073;;;;
2020/09/15 09:48:04;;;;;;;2;1.1;;;;;;;32.63;30.31445;943.9715;;;;
2020/09/15 09:50:30;;;;;;;2.4;1.3;;;;;;;32.74;31.3418;943.9364;;;;
2020/09/15 09:52:56;;;;;;;1.8;1.4;;;;;;;32.77;30.73242;943.9083;;;;
2020/09/15 09:55:21;;;;;;;5;1.2;;;;;;;32.42;32.63965;943.9111;;;;
2020/09/15 09:57:46;;;;;;;1.6;0.9;;;;;;;32.86;31.24219;943.9386;;;;
2020/09/15 10:00:29;;;;;;;1.4;0.9;;;;;;;31.56;35.62988;943.894;;;;
2020/09/15 10:02:55;;;;;;;0.8;0.8;;;;;;;32.07;31.16406;943.8244;;;;
2020/09/15 10:05:20;;;;;;;3.5;1.1;;;;;;;32.38;32.30078;943.8463;;;;
2020/09/15 10:07:46;;;;;;;1.4;1.2;;;;;;;32.15;33.85547;943.8334;;;;
2020/09/15 10:10:16;;;;;;;2;1;;;;;;;32.66;32.76465;943.8477;;;;
2020/09/15 10:12:42;;;;;;;2;1.1;;;;;;;32.17;34.51465;943.807;;;;
2020/09/15 10:15:10;;;;;;;1.5;0.7;;;;;;;32.31;34.71875;943.8005;;;;
2020/09/15 10:17:35;;;;;;;1.9;0.9;;;;;;;32.42;35.50586;943.8108;;;;
2020/09/15 10:20:02;;;;;;;0.9;0.6;;;;;;;31.99;35.46094;943.7344;;;;
2020/09/15 10:22:27;;;;;;;1.3;0.9;;;;;;;32.68;35.47852;943.7813;;;;
2020/09/15 10:24:53;;;;;;;2.7;1;;;;;;;32.76;34.28516;943.7729;;;;
2020/09/15 10:27:17;;;;;;;2.8;1.7;;;;;;;32.98;33.02734;943.7486;;;;
2020/09/15 10:29:43;;;;;;;2.5;1.3;;;;;;;32.81;32.88379;943.7319;;;;
2020/09/15 10:32:08;;;;;;;1.9;1.5;;;;;;;32.83;33.38867;943.7391;;;;
2020/09/15 10:34:33;;;;;;;3.6;1;;;;;;;32.31;36.13379;943.7032;;;;
2020/09/15 10:36:58;;;;;;;1.3;0.9;;;;;;;32.79;34.51465;943.7098;;;;
2020/09/15 10:39:23;;;;;;;2.8;1.6;;;;;;;32.85;36.04395;943.668;;;;
2020/09/15 10:41:48;;;;;;;3.3;1.7;;;;;;;33.59;33.91406;943.6113;;;;
2020/09/15 10:44:13;;;;;;;2.2;1.5;;;;;;;34.01;34.41504;943.5675;;;;
2020/09/15 10:46:39;;;;;;;3.8;1.5;;;;;;;34.51;32.8252;943.5977;;;;
2020/09/15 10:49:05;;;;;;;4.5;1.3;;;;;;;34.53;33.27344;943.5715;;;;
2020/09/15 10:51:30;;;;;;;1.6;1.2;;;;;;;34.52;33.2002;943.5095;;;;
2020/09/15 10:53:55;;;;;;;1.9;1.2;;;;;;;34.46;32.25586;943.485;;;;
2020/09/15 10:56:20;;;;;;;2.6;1.6;;;;;;;34.45;32.94238;943.473;;;;
2020/09/15 10:58:47;;;;;;;1.6;0.9;;;;;;;34.54;33.0332;943.4428;;;;
2020/09/15 11:01:12;;;;;;;1.4;0.9;;;;;;;34.14;33.6416;943.4309;;;;
2020/09/15 11:03:38;;;;;;;2.1;1;;;;;;;34.17;34.95703;943.3856;;;;
2020/09/15 11:06:03;;;;;;;1.1;0.8;;;;;;;34.1;34.74609;943.3672;;;;
2020/09/15 11:08:30;;;;;;;1.1;1;;;;;;;33.83;35.68945;943.2808;;;;
2020/09/15 11:10:55;;;;;;;1.2;0.8;;;;;;;33.81;35.89063;943.2704;;;;
2020/09/15 11:13:20;;;;;;;1.1;1;;;;;;;33.75;35.63379;943.23;;;;
2020/09/15 11:15:48;;;;;;;1.5;0.9;;;;;;;33.75;35.73047;943.2686;;;;
2020/09/15 11:18:13;;;;;;;1.8;1.1;;;;;;;33.83;35.0625;943.2217;;;;
2020/09/15 11:20:38;;;;;;;0.8;0.8;;;;;;;33.67;35.71094;943.2866;;;;
2020/09/15 11:23:03;;;;;;;1.3;0.9;;;;;;;33.8;37.03418;943.2302;;;;
2020/09/15 11:25:28;;;;;;;1.5;1.1;;;;;;;34.16;35.35352;943.2994;;;;
2020/09/15 11:27:55;;;;;;;1.2;0.9;;;;;;;33.96;34.78418;943.2763;;;;
2020/09/15 11:30:24;;;;;;;1.4;1.1;;;;;;;33.74;36.5;943.2397;;;;
2020/09/15 11:32:51;;;;;;;1.8;0.8;;;;;;;33.54;35.9668;943.1993;;;;
2020/09/15 11:35:16;;;;;;;2;1.2;;;;;;;33.31;38.45996;943.1649;;;;
2020/09/15 11:37:43;;;;;;;1.3;0.9;;;;;;;33.36;36.76855;943.1506;;;;
2020/09/15 11:40:08;;;;;;;1.6;1;;;;;;;33.46;36.26074;943.1544;;;;
2020/09/15 11:42:33;;;;;;;2;0.9;;;;;;;33.43;36.19824;943.147;;;;
2020/09/15 11:45:00;;;;;;;1.5;1.1;;;;;;;33.33;36.82715;943.1108;;;;
2020/09/15 11:47:25;;;;;;;1.6;1;;;;;;;33;37.91797;943.0655;;;;
2020/09/15 11:49:51;;;;;;;1.5;1;;;;;;;33.12;37.65234;943.1172;;;;
2020/09/15 11:52:17;;;;;;;1.3;0.9;;;;;;;33.02;37.45117;943.0547;;;;
2020/09/15 11:54:43;;;;;;;1.3;1.1;;;;;;;33.1;37.87793;942.97;;;;
2020/09/15 11:57:08;;;;;;;1.4;0.8;;;;;;;32.99;38.5293;942.9473;;;;
2020/09/15 11:59:35;;;;;;;0.9;0.8;;;;;;;32.95;36.87988;942.8934;;;;
2020/09/15 12:01:59;;;;;;;2.6;1.1;;;;;;;32.95;37.26465;942.8816;;;;
2020/09/15 12:04:25;;;;;;;2;0.9;;;;;;;32.76;38.40234;942.8464;;;;
2020/09/15 12:06:50;;;;;;;2;1.1;;;;;;;32.78;37.50293;942.807;;;;
2020/09/15 12:09:15;;;;;;;1.4;0.8;;;;;;;32.86;37.24609;942.8039;;;;
2020/09/15 12:11:40;;;;;;;1.8;0.9;;;;;;;32.78;39.32715;942.7572;;;;
2020/09/15 12:14:05;;;;;;;1.3;0.9;;;;;;;32.86;39.6709;942.7101;;;;
2020/09/15 12:16:32;;;;;;;1.3;1.1;;;;;;;32.81;38.7793;942.6995;;;;
2020/09/15 12:18:57;;;;;;;1.2;1;;;;;;;32.76;38.81055;942.6345;;;;
2020/09/15 12:21:23;;;;;;;1.1;0.9;;;;;;;32.65;39.55664;942.617;;;;
2020/09/15 12:23:48;;;;;;;1.3;0.8;;;;;;;32.76;37.60938;942.6663;;;;
2020/09/15 12:26:13;;;;;;;1.4;0.9;;;;;;;32.89;37.53711;942.5928;;;;
2020/09/15 12:28:38;;;;;;;1.4;0.9;;;;;;;32.97;37.7832;942.5725;;;;
2020/09/15 12:31:04;;;;;;;1.7;0.8;;;;;;;33;38.31445;942.5842;;;;
2020/09/15 12:33:29;;;;;;;0.8;0.8;;;;;;;33.08;37.31152;942.5251;;;;
2020/09/15 12:35:55;;;;;;;1.3;1;;;;;;;32.95;36.60449;942.5053;;;;
2020/09/15 12:38:20;;;;;;;1.2;0.8;;;;;;;32.94;36.4834;942.4756;;;;
2020/09/15 12:40:50;;;;;;;1.6;1.1;;;;;;;32.73;36.23828;942.4292;;;;
2020/09/15 12:43:17;;;;;;;2;1.1;;;;;;;32.42;37.0293;942.4174;;;;
2020/09/15 12:45:41;;;;;;;1.1;0.7;;;;;;;32.23;37.39844;942.4238;;;;
2020/09/15 12:48:09;;;;;;;1.2;0.9;;;;;;;32.46;38.30469;942.3462;;;;
2020/09/15 12:50:34;;;;;;;1.9;1.3;;;;;;;32.52;37.03711;942.3546;;;;
2020/09/15 12:53:00;;;;;;;1.2;1;;;;;;;32.42;36.87305;942.3571;;;;
2020/09/15 12:55:25;;;;;;;0.8;0.8;;;;;;;32.44;37.57129;942.3477;;;;
2020/09/15 12:57:50;;;;;;;1.4;0.8;;;;;;;32.44;37.59473;942.3212;;;;
2020/09/15 13:00:20;;;;;;;2.1;0.8;;;;;;;32.55;37.87988;942.2936;;;;
2020/09/15 13:02:44;;;;;;;1.8;0.8;;;;;;;32.47;38.75;942.3072;;;;
2020/09/15 13:05:17;;;;;;;1.6;0.7;;;;;;;32.4;37.66309;942.2324;;;;
2020/09/15 13:07:42;;;;;;;1;0.8;;;;;;;32.49;38.43945;942.2418;;;;
2020/09/15 13:10:07;;;;;;;1.5;0.9;;;;;;;32.5;38.48828;942.1741;;;;
2020/09/15 13:12:34;;;;;;;1.1;0.7;;;;;;;32.44;38.77051;942.2054;;;;
2020/09/15 13:14:59;;;;;;;1.3;0.9;;;;;;;32.28;39.14063;942.1763;;;;
2020/09/15 13:17:24;;;;;;;1.5;0.9;;;;;;;32.22;38.98047;942.157;;;;
2020/09/15 13:19:49;;;;;;;3;1.3;;;;;;;32.09;39.49609;942.1171;;;;
2020/09/15 13:22:14;;;;;;;0.9;0.7;;;;;;;32.1;39.79688;942.0989;;;;
2020/09/15 13:24:41;;;;;;;1.3;1;;;;;;;31.7;40.2041;942.0726;;;;
2020/09/15 13:27:06;;;;;;;2.5;1.2;;;;;;;31.45;40.38574;942.0477;;;;
2020/09/15 13:29:31;;;;;;;1.4;1.1;;;;;;;31.53;41.00391;942.0549;;;;
2020/09/15 13:31:58;;;;;;;1.1;0.7;;;;;;;31.44;41.10254;942.0237;;;;
2020/09/15 13:34:23;;;;;;;1.8;0.8;;;;;;;31.43;41.01855;942.033;;;;
2020/09/15 13:36:48;;;;;;;1.5;0.9;;;;;;;31.48;41.07031;942.0622;;;;
2020/09/15 13:39:13;;;;;;;1.6;0.9;;;;;;;31.49;40.9043;942.0193;;;;
2020/09/15 13:41:39;;;;;;;1.2;0.8;;;;;;;31.51;41.6123;941.9916;;;;
2020/09/15 13:44:04;;;;;;;1.4;0.9;;;;;;;31.45;41.73828;941.9933;;;;
2020/09/15 13:46:31;;;;;;;2.2;1.3;;;;;;;31.4;40.90723;941.9348;;;;
2020/09/15 13:48:56;;;;;;;2.2;0.8;;;;;;;31.35;41.42969;941.9306;;;;
2020/09/15 13:51:26;;;;;;;2.1;1.3;;;;;;;31.29;41.04199;941.9761;;;;
2020/09/15 13:53:51;;;;;;;2.8;1;;;;;;;31.22;41.2627;941.9229;;;;
2020/09/15 13:56:20;;;;;;;1.5;0.9;;;;;;;31.12;41.80371;941.9408;;;;
2020/09/15 13:58:45;;;;;;;2.6;1.2;;;;;;;31.09;42.06348;941.9224;;;;
2020/09/15 14:01:16;;;;;;;2.2;1.3;;;;;;;31.07;43.16211;941.8546;;;;
2020/09/15 14:03:46;;;;;;;2;0.9;;;;;;;30.94;42.33691;941.8825;;;;
2020/09/15 14:06:13;;;;;;;0.9;0.8;;;;;;;30.7;43.11523;941.8176;;;;
2020/09/15 14:08:36;;;;;;;1.7;1.2;;;;;;;30.65;43.95801;941.8086;;;;
2020/09/15 14:11:03;;;;;;;2;0.9;;;;;;;30.55;43.91406;941.7869;;;;
2020/09/15 14:13:28;;;;;;;4.2;1.1;;;;;;;30.45;43.39063;941.8047;;;;
2020/09/15 14:15:54;;;;;;;1.5;1.2;;;;;;;30.46;44.07129;941.8044;;;;
2020/09/15 14:18:20;;;;;;;2.6;1.2;;;;;;;30.48;43.53613;941.7831;;;;
2020/09/15 14:20:44;;;;;;;2.5;1;;;;;;;30.39;43.66992;941.7747;;;;
2020/09/15 14:23:11;;;;;;;2.3;1.4;;;;;;;30.27;44.44727;941.7392;;;;
2020/09/15 14:25:35;;;;;;;1.9;1;;;;;;;30.19;43.62793;941.7193;;;;
2020/09/15 14:28:02;;;;;;;1.7;0.9;;;;;;;30.1;43.86914;941.7617;;;;
2020/09/15 14:30:28;;;;;;;1.9;1;;;;;;;30.16;43.85156;941.7162;;;;
2020/09/15 14:32:54;;;;;;;3.1;1.2;;;;;;;30.2;44.44043;941.6967;;;;
2020/09/15 14:35:18;;;;;;;2.3;1.2;;;;;;;30.17;45.03418;941.687;;;;
2020/09/15 14:37:46;;;;;;;1.9;1.3;;;;;;;30.18;44.91504;941.647;;;;
2020/09/15 14:40:11;;;;;;;1.6;1.1;;;;;;;30.12;45.11328;941.5764;;;;
2020/09/15 14:42:38;;;;;;;1.1;1;;;;;;;30.02;44.76855;941.6445;;;;
2020/09/15 14:45:03;;;;;;;1.4;1;;;;;;;30.02;44.35156;941.5927;;;;
2020/09/15 14:47:28;;;;;;;1.8;1;;;;;;;29.96;44.64453;941.6594;;;;
2020/09/15 14:49:53;;;;;;;1.6;1.2;;;;;;;29.96;44.19043;941.6342;;;;
2020/09/15 14:52:19;;;;;;;1.2;0.9;;;;;;;29.85;44.28613;941.6337;;;;
2020/09/15 14:54:44;;;;;;;3;0.9;;;;;;;29.78;44.50684;941.6331;;;;
2020/09/15 14:57:11;;;;;;;2.3;1.1;;;;;;;29.77;45.18555;941.565;;;;
2020/09/15 14:59:36;;;;;;;2.5;1.3;;;;;;;29.7;44.61816;941.5673;;;;
2020/09/15 15:02:01;;;;;;;3.6;1.4;;;;;;;29.8;45.56934;941.5648;;;;
2020/09/15 15:04:26;;;;;;;1.9;1;;;;;;;29.66;46.2832;941.5071;;;;
2020/09/15 15:06:52;;;;;;;3.5;1.1;;;;;;;29.64;45.97168;941.4866;;;;
2020/09/15 15:09:17;;;;;;;4.5;1.3;;;;;;;29.66;46.46191;941.4785;;;;
2020/09/15 15:11:46;;;;;;;6.1;1.4;;;;;;;29.66;46.24707;941.4467;;;;
2020/09/15 15:14:11;;;;;;;2.4;1.2;;;;;;;29.29;46.28223;941.4461;;;;
2020/09/15 15:16:37;;;;;;;2.1;1.2;;;;;;;29.3;46.61523;941.4353;;;;
2020/09/15 15:19:01;;;;;;;2;1.4;;;;;;;29.17;46.04297;941.4277;;;;
2020/09/15 15:21:29;;;;;;;8.1;1.4;;;;;;;28.93;47.14941;941.4523;;;;
2020/09/15 15:23:54;;;;;;;1.3;1.1;;;;;;;29.07;47.33008;941.4119;;;;
2020/09/15 15:26:21;;;;;;;1.9;1.2;;;;;;;28.98;47.95117;941.4031;;;;
2020/09/15 15:28:46;;;;;;;2.6;1.1;;;;;;;28.83;47.86426;941.3954;;;;
2020/09/15 15:31:12;;;;;;;1.1;1;;;;;;;28.74;48.02148;941.3699;;;;
2020/09/15 15:33:37;;;;;;;4.6;1.3;;;;;;;28.65;47.79688;941.3356;;;;
2020/09/15 15:36:02;;;;;;;5.7;1.4;;;;;;;28.64;48.79688;941.3279;;;;
2020/09/15 15:38:27;;;;;;;2.6;1.1;;;;;;;28.5;49.29102;941.3376;;;;
2020/09/15 15:41:00;;;;;;;2;0.8;;;;;;;28.31;49.10547;941.3333;;;;
2020/09/15 15:43:27;;;;;;;2.8;1.2;;;;;;;28.25;49.77539;941.3234;;;;
2020/09/15 15:45:53;;;;;;;2.9;1.1;;;;;;;28.09;50.53027;941.3153;;;;
2020/09/15 15:48:18;;;;;;;3.2;1.4;;;;;;;27.9;51.14941;941.3336;;;;
2020/09/15 15:50:43;;;;;;;1.6;1.1;;;;;;;28.07;50.71777;941.2665;;;;
2020/09/15 15:53:09;;;;;;;1.1;0.8;;;;;;;28.12;50.21289;941.375;;;;
2020/09/15 15:55:34;;;;;;;1.6;1.3;;;;;;;28.05;50.41895;941.3348;;;;
2020/09/15 15:57:59;;;;;;;1.7;1;;;;;;;28.07;50.62305;941.3279;;;;
2020/09/15 16:00:28;;;;;;;1.8;0.9;;;;;;;28.11;50.5791;941.3381;;;;
2020/09/15 16:02:54;;;;;;;1.6;1;;;;;;;28;50.63867;941.3176;;;;
2020/09/15 16:05:20;;;;;;;2;1.6;;;;;;;27.93;50.46484;941.2819;;;;
2020/09/15 16:07:47;;;;;;;2.2;1.4;;;;;;;27.95;50.18164;941.2733;;;;
2020/09/15 16:10:12;;;;;;;1.8;1.1;;;;;;;27.96;50.40918;941.3016;;;;
2020/09/15 16:12:37;;;;;;;2.4;1.3;;;;;;;27.7;51.0918;941.3028;;;;
2020/09/15 16:15:02;;;;;;;3.5;1.2;;;;;;;27.63;51.32129;941.2711;;;;
2020/09/15 16:17:27;;;;;;;1.5;1.2;;;;;;;27.57;51.33887;941.2279;;;;